Terminal Aerodrome Forecast
Issued by NWS

Home | Current Version | Previous Version | Text Only | Print | Product List | Glossary On
Versions: 1 2 3 4 5 6 7 8 9 10 11 12 13 14 15 16 17 18 19 20 21 22 23 24 25 26 27 28 29 30 31 32
000
FTUS45 KREV 081811 AAA
TAFRNO
TAF AMD
KRNO 081811Z 0818/0918 19010KT P6SM VCSH SCT025 BKN040
      WS015/22040KT
     FM082100 22012G23KT P6SM VCSH SCT040 BKN060
     FM090200 19010G18KT P6SM VCSH SCT045 OVC060
      TEMPO 0903/0907 -SHRA OVC040=

USA.gov is the U.S. government's official web portal to all federal, state and local government web resources and services.